sensor_id;sensor_type;location;lat;lon;timestamp;temperature;humidity
4505;DHT22;2265;48.794;9.520;2022-12-07T00:00:53;5.00;98.00
4505;DHT22;2265;48.794;9.520;2022-12-07T00:03:20;4.90;98.00
4505;DHT22;2265;48.794;9.520;2022-12-07T00:05:49;5.00;98.00
4505;DHT22;2265;48.794;9.520;2022-12-07T00:08:16;5.00;98.00
4505;DHT22;2265;48.794;9.520;2022-12-07T00:10:43;5.00;98.00
4505;DHT22;2265;48.794;9.520;2022-12-07T00:13:10;5.10;98.00
4505;DHT22;2265;48.794;9.520;2022-12-07T00:15:37;5.20;98.00
4505;DHT22;2265;48.794;9.520;2022-12-07T00:18:04;5.20;98.00
4505;DHT22;2265;48.794;9.520;2022-12-07T00:20:32;5.10;98.00
4505;DHT22;2265;48.794;9.520;2022-12-07T00:23:00;5.10;98.00
4505;DHT22;2265;48.794;9.520;2022-12-07T00:25:27;5.10;98.00
4505;DHT22;2265;48.794;9.520;2022-12-07T00:27:55;5.10;98.00
4505;DHT22;2265;48.794;9.520;2022-12-07T00:30:22;5.10;98.00
4505;DHT22;2265;48.794;9.520;2022-12-07T00:32:50;5.10;98.00
4505;DHT22;2265;48.794;9.520;2022-12-07T00:35:17;5.00;98.00
4505;DHT22;2265;48.794;9.520;2022-12-07T00:37:44;5.00;98.00
4505;DHT22;2265;48.794;9.520;2022-12-07T00:40:13;4.90;98.00
4505;DHT22;2265;48.794;9.520;2022-12-07T00:42:40;4.90;98.00
4505;DHT22;2265;48.794;9.520;2022-12-07T00:45:08;5.00;98.00
4505;DHT22;2265;48.794;9.520;2022-12-07T00:47:35;5.00;98.00
4505;DHT22;2265;48.794;9.520;2022-12-07T00:50:06;5.00;98.00
4505;DHT22;2265;48.794;9.520;2022-12-07T00:52:33;5.00;98.00
4505;DHT22;2265;48.794;9.520;2022-12-07T00:55:00;5.10;98.00
4505;DHT22;2265;48.794;9.520;2022-12-07T00:57:30;5.10;98.00
4505;DHT22;2265;48.794;9.520;2022-12-07T00:59:57;5.10;98.00
4505;DHT22;2265;48.794;9.520;2022-12-07T01:02:26;5.00;98.00
4505;DHT22;2265;48.794;9.520;2022-12-07T01:04:53;5.00;98.00
4505;DHT22;2265;48.794;9.520;2022-12-07T01:07:20;5.10;98.00
4505;DHT22;2265;48.794;9.520;2022-12-07T01:09:47;5.20;98.00
4505;DHT22;2265;48.794;9.520;2022-12-07T01:12:14;5.30;98.00
4505;DHT22;2265;48.794;9.520;2022-12-07T01:14:43;5.40;98.00
4505;DHT22;2265;48.794;9.520;2022-12-07T01:17:10;5.50;98.00
4505;DHT22;2265;48.794;9.520;2022-12-07T01:19:37;5.40;98.00
4505;DHT22;2265;48.794;9.520;2022-12-07T01:22:04;5.40;98.00
4505;DHT22;2265;48.794;9.520;2022-12-07T01:24:31;5.40;98.00
4505;DHT22;2265;48.794;9.520;2022-12-07T01:27:01;5.40;98.00
4505;DHT22;2265;48.794;9.520;2022-12-07T01:29:28;5.30;98.00
4505;DHT22;2265;48.794;9.520;2022-12-07T01:31:58;5.10;98.00
4505;DHT22;2265;48.794;9.520;2022-12-07T01:34:25;5.10;98.00
4505;DHT22;2265;48.794;9.520;2022-12-07T01:36:52;5.00;98.00
4505;DHT22;2265;48.794;9.520;2022-12-07T01:39:19;4.80;98.00
4505;DHT22;2265;48.794;9.520;2022-12-07T01:41:46;4.90;98.00
4505;DHT22;2265;48.794;9.520;2022-12-07T01:44:17;4.90;98.00
4505;DHT22;2265;48.794;9.520;2022-12-07T01:46:46;4.90;98.00
4505;DHT22;2265;48.794;9.520;2022-12-07T01:49:27;4.90;98.00
4505;DHT22;2265;48.794;9.520;2022-12-07T01:52:01;4.90;98.00
4505;DHT22;2265;48.794;9.520;2022-12-07T01:54:29;4.80;98.00
4505;DHT22;2265;48.794;9.520;2022-12-07T01:56:57;4.80;98.00
4505;DHT22;2265;48.794;9.520;2022-12-07T01:59:25;4.70;98.00
4505;DHT22;2265;48.794;9.520;2022-12-07T02:01:53;4.70;98.00
4505;DHT22;2265;48.794;9.520;2022-12-07T02:04:23;4.70;98.00
4505;DHT22;2265;48.794;9.520;2022-12-07T02:06:51;4.90;98.00
4505;DHT22;2265;48.794;9.520;2022-12-07T02:09:18;4.90;98.00
4505;DHT22;2265;48.794;9.520;2022-12-07T02:11:45;5.00;98.00
4505;DHT22;2265;48.794;9.520;2022-12-07T02:14:13;5.10;98.00
4505;DHT22;2265;48.794;9.520;2022-12-07T02:16:47;5.00;98.00
4505;DHT22;2265;48.794;9.520;2022-12-07T02:19:50;5.00;98.00
4505;DHT22;2265;48.794;9.520;2022-12-07T02:22:37;5.00;98.00
4505;DHT22;2265;48.794;9.520;2022-12-07T02:25:11;5.10;98.00
4505;DHT22;2265;48.794;9.520;2022-12-07T02:27:45;5.00;98.00
4505;DHT22;2265;48.794;9.520;2022-12-07T02:30:15;4.90;98.00
4505;DHT22;2265;48.794;9.520;2022-12-07T02:32:49;4.90;98.00
4505;DHT22;2265;48.794;9.520;2022-12-07T02:35:21;4.90;98.00
4505;DHT22;2265;48.794;9.520;2022-12-07T02:38:00;4.90;98.00
4505;DHT22;2265;48.794;9.520;2022-12-07T02:40:35;4.90;98.00
4505;DHT22;2265;48.794;9.520;2022-12-07T02:43:08;4.80;98.00
4505;DHT22;2265;48.794;9.520;2022-12-07T02:45:39;4.70;98.00
4505;DHT22;2265;48.794;9.520;2022-12-07T02:48:09;4.70;98.00
4505;DHT22;2265;48.794;9.520;2022-12-07T02:50:37;4.70;98.00
4505;DHT22;2265;48.794;9.520;2022-12-07T02:53:04;4.70;98.00
4505;DHT22;2265;48.794;9.520;2022-12-07T02:55:36;4.70;98.00
4505;DHT22;2265;48.794;9.520;2022-12-07T02:58:17;4.80;98.00
4505;DHT22;2265;48.794;9.520;2022-12-07T03:00:55;4.80;98.00
4505;DHT22;2265;48.794;9.520;2022-12-07T03:03:25;4.90;98.00
4505;DHT22;2265;48.794;9.520;2022-12-07T03:06:02;4.80;98.00
4505;DHT22;2265;48.794;9.520;2022-12-07T03:08:44;4.80;98.00
4505;DHT22;2265;48.794;9.520;2022-12-07T03:11:16;4.70;98.00
4505;DHT22;2265;48.794;9.520;2022-12-07T03:13:50;4.80;98.00
4505;DHT22;2265;48.794;9.520;2022-12-07T03:16:26;4.80;98.00
4505;DHT22;2265;48.794;9.520;2022-12-07T03:18:55;4.70;98.00
4505;DHT22;2265;48.794;9.520;2022-12-07T03:21:26;4.60;98.00
4505;DHT22;2265;48.794;9.520;2022-12-07T03:23:56;4.60;98.00
4505;DHT22;2265;48.794;9.520;2022-12-07T03:26:30;4.70;98.00
4505;DHT22;2265;48.794;9.520;2022-12-07T03:29:02;4.70;98.00
4505;DHT22;2265;48.794;9.520;2022-12-07T03:31:34;4.80;98.00
4505;DHT22;2265;48.794;9.520;2022-12-07T03:34:09;4.80;98.00
4505;DHT22;2265;48.794;9.520;2022-12-07T03:36:41;4.80;98.00
4505;DHT22;2265;48.794;9.520;2022-12-07T03:39:19;4.80;98.00
4505;DHT22;2265;48.794;9.520;2022-12-07T03:41:49;4.90;98.00
4505;DHT22;2265;48.794;9.520;2022-12-07T03:44:18;4.90;98.00
4505;DHT22;2265;48.794;9.520;2022-12-07T03:46:52;5.00;98.00
4505;DHT22;2265;48.794;9.520;2022-12-07T03:49:26;5.00;98.00
4505;DHT22;2265;48.794;9.520;2022-12-07T03:51:57;4.90;98.00
4505;DHT22;2265;48.794;9.520;2022-12-07T03:54:32;4.90;98.00
4505;DHT22;2265;48.794;9.520;2022-12-07T03:57:01;4.90;98.00
4505;DHT22;2265;48.794;9.520;2022-12-07T03:59:30;4.70;98.00
4505;DHT22;2265;48.794;9.520;2022-12-07T04:02:02;4.70;98.00
4505;DHT22;2265;48.794;9.520;2022-12-07T04:04:30;4.60;98.00
4505;DHT22;2265;48.794;9.520;2022-12-07T04:06:57;4.70;98.00
4505;DHT22;2265;48.794;9.520;2022-12-07T04:09:25;4.70;98.00
4505;DHT22;2265;48.794;9.520;2022-12-07T04:11:52;4.70;98.00
4505;DHT22;2265;48.794;9.520;2022-12-07T04:14:19;4.70;98.00
4505;DHT22;2265;48.794;9.520;2022-12-07T04:16:46;4.60;98.00
4505;DHT22;2265;48.794;9.520;2022-12-07T04:19:17;4.60;98.00
4505;DHT22;2265;48.794;9.520;2022-12-07T04:21:45;4.50;98.00
4505;DHT22;2265;48.794;9.520;2022-12-07T04:24:13;4.40;98.00
4505;DHT22;2265;48.794;9.520;2022-12-07T04:26:41;4.40;98.00
4505;DHT22;2265;48.794;9.520;2022-12-07T04:29:09;4.40;98.00
4505;DHT22;2265;48.794;9.520;2022-12-07T04:31:36;4.30;98.00
4505;DHT22;2265;48.794;9.520;2022-12-07T04:34:05;4.10;98.00
4505;DHT22;2265;48.794;9.520;2022-12-07T04:36:34;4.00;98.00
4505;DHT22;2265;48.794;9.520;2022-12-07T04:39:03;4.00;98.00
4505;DHT22;2265;48.794;9.520;2022-12-07T04:41:31;4.00;98.00
4505;DHT22;2265;48.794;9.520;2022-12-07T04:44:00;4.00;98.00
4505;DHT22;2265;48.794;9.520;2022-12-07T04:46:28;4.10;98.00
4505;DHT22;2265;48.794;9.520;2022-12-07T04:48:56;4.20;98.00
4505;DHT22;2265;48.794;9.520;2022-12-07T04:51:25;4.20;98.00
4505;DHT22;2265;48.794;9.520;2022-12-07T04:53:54;4.20;98.00
4505;DHT22;2265;48.794;9.520;2022-12-07T04:56:22;4.20;98.00
4505;DHT22;2265;48.794;9.520;2022-12-07T04:58:50;4.30;98.00
4505;DHT22;2265;48.794;9.520;2022-12-07T05:01:18;4.30;98.00
4505;DHT22;2265;48.794;9.520;2022-12-07T05:03:45;4.40;98.00
4505;DHT22;2265;48.794;9.520;2022-12-07T05:06:13;4.30;98.00
4505;DHT22;2265;48.794;9.520;2022-12-07T05:08:41;4.40;98.00
4505;DHT22;2265;48.794;9.520;2022-12-07T05:11:10;4.50;98.00
4505;DHT22;2265;48.794;9.520;2022-12-07T05:13:59;4.40;98.00
4505;DHT22;2265;48.794;9.520;2022-12-07T05:16:27;4.50;98.00
4505;DHT22;2265;48.794;9.520;2022-12-07T05:18:57;4.50;98.00
4505;DHT22;2265;48.794;9.520;2022-12-07T05:21:25;4.50;98.00
4505;DHT22;2265;48.794;9.520;2022-12-07T05:23:52;4.40;98.00
4505;DHT22;2265;48.794;9.520;2022-12-07T05:26:21;4.40;98.00
4505;DHT22;2265;48.794;9.520;2022-12-07T05:28:50;4.40;98.00
4505;DHT22;2265;48.794;9.520;2022-12-07T05:31:18;4.40;98.00
4505;DHT22;2265;48.794;9.520;2022-12-07T05:33:45;4.30;98.00
4505;DHT22;2265;48.794;9.520;2022-12-07T05:36:12;4.20;98.00
4505;DHT22;2265;48.794;9.520;2022-12-07T05:38:39;4.30;98.00
4505;DHT22;2265;48.794;9.520;2022-12-07T05:41:08;4.40;98.00
4505;DHT22;2265;48.794;9.520;2022-12-07T05:43:58;4.40;98.00
4505;DHT22;2265;48.794;9.520;2022-12-07T05:46:25;4.30;98.00
4505;DHT22;2265;48.794;9.520;2022-12-07T05:48:52;4.30;98.00
4505;DHT22;2265;48.794;9.520;2022-12-07T05:51:19;4.10;98.00
4505;DHT22;2265;48.794;9.520;2022-12-07T05:53:46;4.10;98.00
4505;DHT22;2265;48.794;9.520;2022-12-07T05:56:13;4.00;98.00
4505;DHT22;2265;48.794;9.520;2022-12-07T05:58:41;3.90;98.00
4505;DHT22;2265;48.794;9.520;2022-12-07T06:01:27;3.90;98.00
4505;DHT22;2265;48.794;9.520;2022-12-07T06:03:56;3.90;98.00
4505;DHT22;2265;48.794;9.520;2022-12-07T06:06:25;3.90;98.00
4505;DHT22;2265;48.794;9.520;2022-12-07T06:08:52;3.80;98.00
4505;DHT22;2265;48.794;9.520;2022-12-07T06:11:20;3.80;98.00
4505;DHT22;2265;48.794;9.520;2022-12-07T06:14:05;3.80;98.00
4505;DHT22;2265;48.794;9.520;2022-12-07T06:16:33;3.90;98.00
4505;DHT22;2265;48.794;9.520;2022-12-07T06:19:00;3.90;98.00
4505;DHT22;2265;48.794;9.520;2022-12-07T06:21:28;4.00;98.00
4505;DHT22;2265;48.794;9.520;2022-12-07T06:23:55;4.00;98.00
4505;DHT22;2265;48.794;9.520;2022-12-07T06:26:25;4.20;98.00
4505;DHT22;2265;48.794;9.520;2022-12-07T06:28:52;4.20;98.00
4505;DHT22;2265;48.794;9.520;2022-12-07T06:31:20;4.20;98.00
4505;DHT22;2265;48.794;9.520;2022-12-07T06:33:48;4.00;98.00
4505;DHT22;2265;48.794;9.520;2022-12-07T06:36:15;4.00;98.00
4505;DHT22;2265;48.794;9.520;2022-12-07T06:38:42;4.00;98.00
4505;DHT22;2265;48.794;9.520;2022-12-07T06:41:10;3.90;98.00
4505;DHT22;2265;48.794;9.520;2022-12-07T06:43:38;3.80;98.00
4505;DHT22;2265;48.794;9.520;2022-12-07T06:46:05;3.70;98.00
4505;DHT22;2265;48.794;9.520;2022-12-07T06:48:32;3.70;98.00
4505;DHT22;2265;48.794;9.520;2022-12-07T06:51:01;3.70;98.00
4505;DHT22;2265;48.794;9.520;2022-12-07T06:53:28;3.80;98.00
4505;DHT22;2265;48.794;9.520;2022-12-07T06:55:55;3.80;98.00
4505;DHT22;2265;48.794;9.520;2022-12-07T06:58:22;3.60;98.00
4505;DHT22;2265;48.794;9.520;2022-12-07T07:00:49;3.70;98.00
4505;DHT22;2265;48.794;9.520;2022-12-07T07:03:16;3.60;98.00
4505;DHT22;2265;48.794;9.520;2022-12-07T07:05:45;3.60;98.00
4505;DHT22;2265;48.794;9.520;2022-12-07T07:08:14;3.70;98.00
4505;DHT22;2265;48.794;9.520;2022-12-07T07:10:41;3.70;98.00
4505;DHT22;2265;48.794;9.520;2022-12-07T07:13:09;3.70;98.00
4505;DHT22;2265;48.794;9.520;2022-12-07T07:15:37;3.60;98.00
4505;DHT22;2265;48.794;9.520;2022-12-07T07:18:05;3.60;98.00
4505;DHT22;2265;48.794;9.520;2022-12-07T07:20:32;3.70;98.00
4505;DHT22;2265;48.794;9.520;2022-12-07T07:22:59;3.70;98.00
4505;DHT22;2265;48.794;9.520;2022-12-07T07:25:27;3.80;98.00
4505;DHT22;2265;48.794;9.520;2022-12-07T07:27:55;3.80;98.00
4505;DHT22;2265;48.794;9.520;2022-12-07T07:30:24;3.80;98.00
4505;DHT22;2265;48.794;9.520;2022-12-07T07:32:52;3.90;98.00
4505;DHT22;2265;48.794;9.520;2022-12-07T07:35:22;3.70;98.00
4505;DHT22;2265;48.794;9.520;2022-12-07T07:37:49;3.70;98.00
4505;DHT22;2265;48.794;9.520;2022-12-07T07:40:17;3.80;98.00
4505;DHT22;2265;48.794;9.520;2022-12-07T07:42:47;3.80;98.00
4505;DHT22;2265;48.794;9.520;2022-12-07T07:45:14;3.90;98.00
4505;DHT22;2265;48.794;9.520;2022-12-07T07:47:42;4.20;98.00
4505;DHT22;2265;48.794;9.520;2022-12-07T07:50:09;4.40;98.00
4505;DHT22;2265;48.794;9.520;2022-12-07T07:52:36;4.40;98.00
4505;DHT22;2265;48.794;9.520;2022-12-07T07:55:04;4.50;98.00
4505;DHT22;2265;48.794;9.520;2022-12-07T07:57:34;4.50;98.00
4505;DHT22;2265;48.794;9.520;2022-12-07T08:00:04;4.50;98.00
4505;DHT22;2265;48.794;9.520;2022-12-07T08:02:31;4.40;98.00
4505;DHT22;2265;48.794;9.520;2022-12-07T08:04:58;4.30;98.00
4505;DHT22;2265;48.794;9.520;2022-12-07T08:07:26;4.30;98.00
4505;DHT22;2265;48.794;9.520;2022-12-07T08:09:53;4.30;98.00
4505;DHT22;2265;48.794;9.520;2022-12-07T08:12:20;4.20;98.00
4505;DHT22;2265;48.794;9.520;2022-12-07T08:14:47;4.20;98.00
4505;DHT22;2265;48.794;9.520;2022-12-07T08:17:16;4.20;98.00
4505;DHT22;2265;48.794;9.520;2022-12-07T08:19:44;4.30;98.00
4505;DHT22;2265;48.794;9.520;2022-12-07T08:22:11;4.40;98.00
4505;DHT22;2265;48.794;9.520;2022-12-07T08:24:38;4.50;98.00
4505;DHT22;2265;48.794;9.520;2022-12-07T08:27:06;4.70;98.00
4505;DHT22;2265;48.794;9.520;2022-12-07T08:29:33;4.70;98.00
4505;DHT22;2265;48.794;9.520;2022-12-07T08:32:00;4.90;98.00
4505;DHT22;2265;48.794;9.520;2022-12-07T08:34:28;5.00;98.00
4505;DHT22;2265;48.794;9.520;2022-12-07T08:36:56;5.00;98.00
4505;DHT22;2265;48.794;9.520;2022-12-07T08:39:23;5.00;98.00
4505;DHT22;2265;48.794;9.520;2022-12-07T08:41:50;4.90;98.00
4505;DHT22;2265;48.794;9.520;2022-12-07T08:44:17;5.00;98.00
4505;DHT22;2265;48.794;9.520;2022-12-07T08:46:46;5.20;98.00
4505;DHT22;2265;48.794;9.520;2022-12-07T08:49:17;5.10;98.00
4505;DHT22;2265;48.794;9.520;2022-12-07T08:51:47;5.00;98.00
4505;DHT22;2265;48.794;9.520;2022-12-07T08:54:17;5.20;98.00
4505;DHT22;2265;48.794;9.520;2022-12-07T08:56:46;5.30;98.00
4505;DHT22;2265;48.794;9.520;2022-12-07T08:59:16;5.30;98.00
4505;DHT22;2265;48.794;9.520;2022-12-07T09:01:44;5.30;98.00
4505;DHT22;2265;48.794;9.520;2022-12-07T09:04:12;5.30;98.00
4505;DHT22;2265;48.794;9.520;2022-12-07T09:06:40;5.50;98.00
4505;DHT22;2265;48.794;9.520;2022-12-07T09:09:09;5.50;98.00
4505;DHT22;2265;48.794;9.520;2022-12-07T09:11:37;5.40;98.00
4505;DHT22;2265;48.794;9.520;2022-12-07T09:14:04;5.30;98.00
4505;DHT22;2265;48.794;9.520;2022-12-07T09:16:32;5.50;98.00
4505;DHT22;2265;48.794;9.520;2022-12-07T09:18:59;5.50;98.00
4505;DHT22;2265;48.794;9.520;2022-12-07T09:21:26;5.60;98.00
4505;DHT22;2265;48.794;9.520;2022-12-07T09:23:53;5.60;98.00
4505;DHT22;2265;48.794;9.520;2022-12-07T09:26:21;5.50;98.00
4505;DHT22;2265;48.794;9.520;2022-12-07T09:28:48;5.50;98.00
4505;DHT22;2265;48.794;9.520;2022-12-07T09:31:16;5.40;98.00
4505;DHT22;2265;48.794;9.520;2022-12-07T09:33:43;5.40;98.00
4505;DHT22;2265;48.794;9.520;2022-12-07T09:36:10;5.50;98.00
4505;DHT22;2265;48.794;9.520;2022-12-07T09:38:37;5.50;98.00
4505;DHT22;2265;48.794;9.520;2022-12-07T09:41:05;5.60;98.00
4505;DHT22;2265;48.794;9.520;2022-12-07T09:43:35;5.60;98.00
4505;DHT22;2265;48.794;9.520;2022-12-07T09:46:03;5.50;98.00
4505;DHT22;2265;48.794;9.520;2022-12-07T09:48:32;5.50;98.00
4505;DHT22;2265;48.794;9.520;2022-12-07T09:51:00;5.60;98.00
4505;DHT22;2265;48.794;9.520;2022-12-07T09:53:30;5.80;98.00
4505;DHT22;2265;48.794;9.520;2022-12-07T09:55:57;6.00;98.00
4505;DHT22;2265;48.794;9.520;2022-12-07T09:58:25;6.00;98.00
4505;DHT22;2265;48.794;9.520;2022-12-07T10:00:59;6.00;98.00
4505;DHT22;2265;48.794;9.520;2022-12-07T10:03:27;6.00;98.00
4505;DHT22;2265;48.794;9.520;2022-12-07T10:05:55;6.00;98.00
4505;DHT22;2265;48.794;9.520;2022-12-07T10:08:24;6.00;98.00
4505;DHT22;2265;48.794;9.520;2022-12-07T10:10:55;7.30;98.00
4505;DHT22;2265;48.794;9.520;2022-12-07T10:13:34;8.70;98.00
4505;DHT22;2265;48.794;9.520;2022-12-07T10:16:03;9.90;98.00
4505;DHT22;2265;48.794;9.520;2022-12-07T10:18:36;10.80;98.00
4505;DHT22;2265;48.794;9.520;2022-12-07T10:21:12;11.30;98.00
4505;DHT22;2265;48.794;9.520;2022-12-07T10:23:41;11.50;98.00
4505;DHT22;2265;48.794;9.520;2022-12-07T10:26:29;10.70;98.00
4505;DHT22;2265;48.794;9.520;2022-12-07T10:28:59;9.60;98.00
4505;DHT22;2265;48.794;9.520;2022-12-07T10:31:28;8.80;98.00
4505;DHT22;2265;48.794;9.520;2022-12-07T10:33:58;8.50;98.00
4505;DHT22;2265;48.794;9.520;2022-12-07T10:36:27;8.00;98.00
4505;DHT22;2265;48.794;9.520;2022-12-07T10:39:02;7.80;98.00
4505;DHT22;2265;48.794;9.520;2022-12-07T10:41:30;7.60;98.00
4505;DHT22;2265;48.794;9.520;2022-12-07T10:43:58;7.10;98.00
4505;DHT22;2265;48.794;9.520;2022-12-07T10:46:53;6.90;98.00
4505;DHT22;2265;48.794;9.520;2022-12-07T10:52:28;6.60;98.00
4505;DHT22;2265;48.794;9.520;2022-12-07T10:55:08;6.40;98.00
4505;DHT22;2265;48.794;9.520;2022-12-07T10:57:47;6.40;98.00
4505;DHT22;2265;48.794;9.520;2022-12-07T11:00:19;6.40;98.00
4505;DHT22;2265;48.794;9.520;2022-12-07T11:03:05;6.60;98.00
4505;DHT22;2265;48.794;9.520;2022-12-07T11:05:39;6.70;98.00
4505;DHT22;2265;48.794;9.520;2022-12-07T11:08:16;6.80;98.00
4505;DHT22;2265;48.794;9.520;2022-12-07T11:10:52;6.70;98.00
4505;DHT22;2265;48.794;9.520;2022-12-07T11:13:29;6.90;98.00
4505;DHT22;2265;48.794;9.520;2022-12-07T11:16:16;6.90;98.00
4505;DHT22;2265;48.794;9.520;2022-12-07T11:19:04;7.00;98.00
4505;DHT22;2265;48.794;9.520;2022-12-07T11:21:40;6.80;98.00
4505;DHT22;2265;48.794;9.520;2022-12-07T11:24:13;6.80;98.00
4505;DHT22;2265;48.794;9.520;2022-12-07T11:26:56;6.90;98.00
4505;DHT22;2265;48.794;9.520;2022-12-07T11:29:50;6.80;98.00
4505;DHT22;2265;48.794;9.520;2022-12-07T11:32:23;6.80;98.00
4505;DHT22;2265;48.794;9.520;2022-12-07T11:35:03;6.60;98.00
4505;DHT22;2265;48.794;9.520;2022-12-07T11:37:34;6.40;98.00
4505;DHT22;2265;48.794;9.520;2022-12-07T11:40:11;6.30;98.00
4505;DHT22;2265;48.794;9.520;2022-12-07T11:42:42;6.20;98.00
4505;DHT22;2265;48.794;9.520;2022-12-07T11:45:15;6.30;98.00
4505;DHT22;2265;48.794;9.520;2022-12-07T11:47:47;6.40;98.00
4505;DHT22;2265;48.794;9.520;2022-12-07T11:50:26;6.60;98.00
4505;DHT22;2265;48.794;9.520;2022-12-07T11:52:57;6.60;98.00
4505;DHT22;2265;48.794;9.520;2022-12-07T11:55:30;6.50;98.00
4505;DHT22;2265;48.794;9.520;2022-12-07T11:58:04;6.50;98.00
4505;DHT22;2265;48.794;9.520;2022-12-07T12:00:32;6.60;98.00
4505;DHT22;2265;48.794;9.520;2022-12-07T12:03:03;6.60;98.00
4505;DHT22;2265;48.794;9.520;2022-12-07T12:05:32;6.60;98.00
4505;DHT22;2265;48.794;9.520;2022-12-07T12:08:05;6.60;98.00
4505;DHT22;2265;48.794;9.520;2022-12-07T12:10:45;6.50;98.00
4505;DHT22;2265;48.794;9.520;2022-12-07T12:16:40;6.40;98.00
4505;DHT22;2265;48.794;9.520;2022-12-07T12:19:26;6.30;98.00
4505;DHT22;2265;48.794;9.520;2022-12-07T12:22:04;6.30;98.00
4505;DHT22;2265;48.794;9.520;2022-12-07T12:24:34;6.40;98.00
4505;DHT22;2265;48.794;9.520;2022-12-07T12:27:05;6.50;98.00
4505;DHT22;2265;48.794;9.520;2022-12-07T12:29:35;6.70;98.00
4505;DHT22;2265;48.794;9.520;2022-12-07T12:32:13;6.70;98.00
4505;DHT22;2265;48.794;9.520;2022-12-07T12:34:42;6.60;98.00
4505;DHT22;2265;48.794;9.520;2022-12-07T12:37:44;6.70;98.00
4505;DHT22;2265;48.794;9.520;2022-12-07T12:40:43;6.60;98.00
4505;DHT22;2265;48.794;9.520;2022-12-07T12:43:46;6.60;98.00
4505;DHT22;2265;48.794;9.520;2022-12-07T12:46:38;6.40;98.00
4505;DHT22;2265;48.794;9.520;2022-12-07T12:49:38;6.30;98.00
4505;DHT22;2265;48.794;9.520;2022-12-07T12:55:15;6.20;98.00
4505;DHT22;2265;48.794;9.520;2022-12-07T12:57:46;5.90;98.00
4505;DHT22;2265;48.794;9.520;2022-12-07T13:00:20;5.80;98.00
4505;DHT22;2265;48.794;9.520;2022-12-07T13:02:49;5.90;98.00
4505;DHT22;2265;48.794;9.520;2022-12-07T13:05:19;5.80;98.00
4505;DHT22;2265;48.794;9.520;2022-12-07T13:07:55;5.70;98.00
4505;DHT22;2265;48.794;9.520;2022-12-07T13:10:39;5.70;98.00
4505;DHT22;2265;48.794;9.520;2022-12-07T13:13:31;5.70;98.00
4505;DHT22;2265;48.794;9.520;2022-12-07T13:19:53;5.60;98.00
4505;DHT22;2265;48.794;9.520;2022-12-07T13:22:43;5.50;98.00
4505;DHT22;2265;48.794;9.520;2022-12-07T13:25:12;5.50;98.00
4505;DHT22;2265;48.794;9.520;2022-12-07T13:27:51;5.50;98.00
4505;DHT22;2265;48.794;9.520;2022-12-07T13:30:21;5.50;98.00
4505;DHT22;2265;48.794;9.520;2022-12-07T13:32:52;5.60;98.00
4505;DHT22;2265;48.794;9.520;2022-12-07T13:35:34;5.70;98.00
4505;DHT22;2265;48.794;9.520;2022-12-07T13:38:13;5.60;98.00
4505;DHT22;2265;48.794;9.520;2022-12-07T13:40:42;5.60;98.00
4505;DHT22;2265;48.794;9.520;2022-12-07T13:43:27;5.60;98.00
4505;DHT22;2265;48.794;9.520;2022-12-07T13:45:56;5.50;98.00
4505;DHT22;2265;48.794;9.520;2022-12-07T13:48:31;5.40;98.00
4505;DHT22;2265;48.794;9.520;2022-12-07T13:51:01;5.50;98.00
4505;DHT22;2265;48.794;9.520;2022-12-07T13:53:29;5.60;98.00
4505;DHT22;2265;48.794;9.520;2022-12-07T13:55:57;5.60;98.00
4505;DHT22;2265;48.794;9.520;2022-12-07T13:58:27;5.70;98.00
4505;DHT22;2265;48.794;9.520;2022-12-07T14:00:56;5.70;98.00
4505;DHT22;2265;48.794;9.520;2022-12-07T14:03:32;5.70;98.00
4505;DHT22;2265;48.794;9.520;2022-12-07T14:06:06;5.60;98.00
4505;DHT22;2265;48.794;9.520;2022-12-07T14:08:34;5.60;98.00
4505;DHT22;2265;48.794;9.520;2022-12-07T14:11:01;5.50;98.00
4505;DHT22;2265;48.794;9.520;2022-12-07T14:13:32;5.50;98.00
4505;DHT22;2265;48.794;9.520;2022-12-07T14:16:01;5.50;98.00
4505;DHT22;2265;48.794;9.520;2022-12-07T14:18:30;5.50;98.00
4505;DHT22;2265;48.794;9.520;2022-12-07T14:21:03;5.60;98.00
4505;DHT22;2265;48.794;9.520;2022-12-07T14:23:32;5.60;98.00
4505;DHT22;2265;48.794;9.520;2022-12-07T14:26:09;5.60;98.00
4505;DHT22;2265;48.794;9.520;2022-12-07T14:28:39;5.80;98.00
4505;DHT22;2265;48.794;9.520;2022-12-07T14:31:11;5.90;98.00
4505;DHT22;2265;48.794;9.520;2022-12-07T14:33:39;6.00;98.00
4505;DHT22;2265;48.794;9.520;2022-12-07T14:36:09;6.00;98.00
4505;DHT22;2265;48.794;9.520;2022-12-07T14:38:37;5.90;98.00
4505;DHT22;2265;48.794;9.520;2022-12-07T14:41:04;6.10;98.00
4505;DHT22;2265;48.794;9.520;2022-12-07T14:43:51;6.10;98.00
4505;DHT22;2265;48.794;9.520;2022-12-07T14:46:18;6.10;98.00
4505;DHT22;2265;48.794;9.520;2022-12-07T14:48:45;6.10;98.00
4505;DHT22;2265;48.794;9.520;2022-12-07T14:51:12;6.10;98.00
4505;DHT22;2265;48.794;9.520;2022-12-07T14:53:44;6.00;98.00
4505;DHT22;2265;48.794;9.520;2022-12-07T14:56:12;5.90;98.00
4505;DHT22;2265;48.794;9.520;2022-12-07T14:58:39;5.80;98.00
4505;DHT22;2265;48.794;9.520;2022-12-07T15:01:08;5.70;98.00
4505;DHT22;2265;48.794;9.520;2022-12-07T15:03:35;5.70;98.00
4505;DHT22;2265;48.794;9.520;2022-12-07T15:06:05;5.60;98.00
4505;DHT22;2265;48.794;9.520;2022-12-07T15:08:33;5.50;98.00
4505;DHT22;2265;48.794;9.520;2022-12-07T15:11:00;5.80;98.00
4505;DHT22;2265;48.794;9.520;2022-12-07T15:13:27;5.90;98.00
4505;DHT22;2265;48.794;9.520;2022-12-07T15:16:14;5.90;98.00
4505;DHT22;2265;48.794;9.520;2022-12-07T15:18:43;6.00;98.00
4505;DHT22;2265;48.794;9.520;2022-12-07T15:21:14;5.90;98.00
4505;DHT22;2265;48.794;9.520;2022-12-07T15:23:42;5.90;98.00
4505;DHT22;2265;48.794;9.520;2022-12-07T15:26:11;5.80;98.00
4505;DHT22;2265;48.794;9.520;2022-12-07T15:28:38;5.70;98.00
4505;DHT22;2265;48.794;9.520;2022-12-07T15:31:12;5.50;98.00
4505;DHT22;2265;48.794;9.520;2022-12-07T15:33:39;5.40;98.00
4505;DHT22;2265;48.794;9.520;2022-12-07T15:36:09;5.40;98.00
4505;DHT22;2265;48.794;9.520;2022-12-07T15:38:43;5.40;98.00
4505;DHT22;2265;48.794;9.520;2022-12-07T15:41:13;5.50;98.00
4505;DHT22;2265;48.794;9.520;2022-12-07T15:43:41;5.50;98.00
4505;DHT22;2265;48.794;9.520;2022-12-07T15:46:31;5.50;98.00
4505;DHT22;2265;48.794;9.520;2022-12-07T15:48:58;5.50;98.00
4505;DHT22;2265;48.794;9.520;2022-12-07T15:51:26;5.60;98.00
4505;DHT22;2265;48.794;9.520;2022-12-07T15:53:53;5.50;98.00
4505;DHT22;2265;48.794;9.520;2022-12-07T15:56:20;5.60;98.00
4505;DHT22;2265;48.794;9.520;2022-12-07T15:58:48;5.70;98.00
4505;DHT22;2265;48.794;9.520;2022-12-07T16:01:16;5.60;98.00
4505;DHT22;2265;48.794;9.520;2022-12-07T16:03:46;5.50;98.00
4505;DHT22;2265;48.794;9.520;2022-12-07T16:06:16;5.50;98.00
4505;DHT22;2265;48.794;9.520;2022-12-07T16:08:43;5.50;98.00
4505;DHT22;2265;48.794;9.520;2022-12-07T16:11:11;5.50;98.00
4505;DHT22;2265;48.794;9.520;2022-12-07T16:13:38;5.50;98.00
4505;DHT22;2265;48.794;9.520;2022-12-07T16:16:07;5.60;98.00
4505;DHT22;2265;48.794;9.520;2022-12-07T16:18:34;5.60;98.00
4505;DHT22;2265;48.794;9.520;2022-12-07T16:21:03;5.60;98.00
4505;DHT22;2265;48.794;9.520;2022-12-07T16:23:31;5.50;98.00
4505;DHT22;2265;48.794;9.520;2022-12-07T16:26:04;5.40;98.00
4505;DHT22;2265;48.794;9.520;2022-12-07T16:28:33;5.50;98.00
4505;DHT22;2265;48.794;9.520;2022-12-07T16:31:01;5.50;98.00
4505;DHT22;2265;48.794;9.520;2022-12-07T16:33:28;5.50;98.00
4505;DHT22;2265;48.794;9.520;2022-12-07T16:35:55;5.50;98.00
4505;DHT22;2265;48.794;9.520;2022-12-07T16:38:27;5.50;98.00
4505;DHT22;2265;48.794;9.520;2022-12-07T16:40:54;5.50;98.00
4505;DHT22;2265;48.794;9.520;2022-12-07T16:43:21;5.50;98.00
4505;DHT22;2265;48.794;9.520;2022-12-07T16:45:49;5.50;98.00
4505;DHT22;2265;48.794;9.520;2022-12-07T16:48:18;5.40;98.00
4505;DHT22;2265;48.794;9.520;2022-12-07T16:50:45;5.40;98.00
4505;DHT22;2265;48.794;9.520;2022-12-07T16:53:13;5.30;98.00